Saturday, October 25, 2014
16:51 UTC
  |  Log In   |  Register Free
Airport Search:

Enid Woodring Regional Airport
(KWDG)

FAA data valid effective September 18, 2014 - November 13, 2014 (unless otherwise noted).

 
 
 
 
 
 
 
 
 
 
 
 
 
 

Current Aviation Weather for Enid Woodring Regional Airport (KWDG)

The most recent METAR observation for KWDG was updated at: 1615
METAR Summary (Translated METAR)
KWDG
251550Z 15005KT 10SM SKC 23/17 A3007
KEND
251558Z AUTO 20007KT 10SM CLR 27/18 A3002 RMK AO2 SLP153
(6.6 nm SW from KWDG)
KBKN
251555Z AUTO 15003KT 10SM CLR 21/17 A3007 RMK AO2
(30.6 nm NE from KWDG)
TAF Summary (Translated TAF)
KEND
(6.6 nm SW from KWDG)
2500/2524 18006KT 9999 FEW250 QNH3000INS BECMG 2508/2509 VRB04KT 9000 BR SKC QNH3004INS BECMG 2514/2515 16010KT 9999 NSW SKC QNH2997INS TX29/2521Z TN15/2512Z AMD 250003 LAST NO AMDS AFT 2500 NEXT 2610
  Airport Weather Conditions for KWDG

 Current Weather at WDG
73° F
Clear
Southeast winds at 5.8 mph
WDG NOAA Radar

Pressure: 30.07 in
Humidity: 69%
Wind: Southeast at 5.8 MPH (5 KT)
Dew Point: 62.6°F
Visibility: 10.00 mi


Airport Weather Forecast for KWDG

Translated METAR and TAF for KWDG
Translated METAR for KWDG (1646 UTC 25 October 2014)
found at http://aviationweather.gov/adds/metars/
 
METAR text: KWDG 251550Z 15005KT 10SM SKC 23/17 A3007
Conditions at: KWDG (ENID/WOODRING , OK, US) observed 1550 UTC 25 October 2014
Temperature: 23.0°C (73°F)
Dewpoint: 17.0°C (63°F) [RH = 69%]
Pressure (altimeter): 30.07 inches Hg (1018.4 mb)
Winds: from the SSE (150 degrees) at 6 MPH (5 knots; 2.6 m/s)
Visibility: 10 or more miles (16+ km)
Ceiling: at least 12,000 feet AGL
Clouds: clear skies
Weather: no significant weather observed at this time
Translated TAF for KWDG

There is no translated TAF available for this airport

Find All Airport Services Find A Hotel Find A Rental Car Find A Golf Course Find A Restaurant $100 Hamburger



FBO's on the Field
FBO Company Facility Photos Services Transportation Aviation Fuel Prices: Prices include tax
Catering Weather Repair Courtesy Rental Type 100LL JetA JetA+ MOGAS 8087
 
Enid Woodring Regional Airport

This FBO has not yet been rated
FS: Phillips 66
Last Updated: Oct-10
Login to update fuel prices
SS:
Contact Enid Woodring Regional AirportMore FBO Information
 
Add another FBO Facility Photos Catering Weather Repair Courtesy Rental Type 100LL JetA JetA+ MOGAS 8087
Services Transportation Aviation Fuel Prices: Prices include tax


model-print
model-print
model-print
model-print